Time;durP1;ratioP1;P1;durP2;ratioP2;P2;SDS_P1;SDS_P2;PMS_P1;PMS_P2;Temp;Humidity;BMP_temperature;BMP_pressure;BME280_temperature;BME280_humidity;BME280_pressure;Samples;Min_cycle;Max_cycle;Signal;HPM_P1;HPM_P2
2022/09/10 00:01:50;;;;;;;12.98;10.43;;;16.60;99.90;;;;;;5108078;28;20061;-82
2022/09/10 00:04:17;;;;;;;13.45;10.30;;;16.40;99.90;;;;;;5089219;28;20120;-84
2022/09/10 00:06:43;;;;;;;10.90;9.80;;;16.30;99.90;;;;;;5092867;27;20047;-85
2022/09/10 00:09:09;;;;;;;12.38;10.23;;;16.40;99.90;;;;;;5110789;27;20480;-83
2022/09/10 00:11:37;;;;;;;13.88;10.98;;;16.60;99.90;;;;;;5114710;27;20134;-85
2022/09/10 00:14:10;;;;;;;13.82;10.60;;;16.50;99.90;;;;;;5101619;27;20054;-85
2022/09/10 00:16:39;;;;;;;15.05;11.63;;;16.30;99.90;;;;;;5112497;27;20071;-88
2022/09/10 00:19:11;;;;;;;14.88;12.10;;;16.20;99.90;;;;;;5131168;27;20062;-88
2022/09/10 00:21:37;;;;;;;13.32;11.38;;;16.50;99.90;;;;;;5102362;27;20039;-86
2022/09/10 00:24:04;;;;;;;12.10;10.80;;;16.50;99.90;;;;;;5121374;27;20039;-87
2022/09/10 00:26:37;;;;;;;17.73;11.30;;;15.80;99.90;;;;;;5128196;27;20057;-88
2022/09/10 00:29:13;;;;;;;13.88;10.43;;;16.40;99.90;;;;;;5122999;27;20946;-90
2022/09/10 00:31:39;;;;;;;17.35;11.50;;;16.50;99.90;;;;;;5115209;27;20071;-87
2022/09/10 00:34:06;;;;;;;12.45;10.88;;;16.40;99.90;;;;;;5103640;27;20074;-88
2022/09/10 00:36:36;;;;;;;14.52;10.68;;;16.70;99.90;;;;;;5103533;27;20034;-86
2022/09/10 00:39:05;;;;;;;13.85;11.35;;;16.70;99.90;;;;;;5134295;27;20041;-87
2022/09/10 00:41:32;;;;;;;12.05;10.70;;;16.60;99.90;;;;;;5118882;27;20038;-89
2022/09/10 00:44:01;;;;;;;15.75;11.77;;;16.70;99.90;;;;;;5114609;27;20540;-87
2022/09/10 00:46:42;;;;;;;12.75;11.27;;;16.70;99.90;;;;;;5115033;27;20046;-85
2022/09/10 00:49:20;;;;;;;14.27;11.15;;;16.70;99.90;;;;;;5111900;27;20457;-85
2022/09/10 00:51:47;;;;;;;12.25;10.85;;;16.80;99.90;;;;;;5113397;27;20038;-83
2022/09/10 00:54:16;;;;;;;13.05;11.55;;;16.60;99.90;;;;;;5111692;27;20091;-86
2022/09/10 00:56:42;;;;;;;13.45;12.05;;;16.80;99.90;;;;;;5132591;27;20039;-83
2022/09/10 00:59:09;;;;;;;15.73;12.05;;;16.80;99.90;;;;;;5084512;27;20430;-85
2022/09/10 01:01:37;;;;;;;13.85;12.45;;;16.60;99.90;;;;;;5102911;27;20039;-86
2022/09/10 01:04:05;;;;;;;13.98;11.80;;;16.80;99.90;;;;;;5108403;27;20088;-83
2022/09/10 01:06:31;;;;;;;17.05;13.13;;;16.90;99.90;;;;;;5097417;27;20102;-83
2022/09/10 01:08:57;;;;;;;15.73;12.70;;;16.90;99.90;;;;;;5098550;27;20392;-82
2022/09/10 01:11:32;;;;;;;16.55;12.30;;;16.70;99.90;;;;;;5110699;27;20157;-81
2022/09/10 01:14:46;;;;;;;17.27;12.88;;;16.80;99.90;;;;;;5113200;27;20045;-81
2022/09/10 01:17:43;;;;;;;13.38;11.98;;;16.90;99.90;;;;;;5107038;27;20043;-81
2022/09/10 01:20:34;;;;;;;14.88;13.27;;;16.70;99.90;;;;;;5103694;27;20043;-83
2022/09/10 01:23:03;;;;;;;14.05;12.55;;;16.90;99.90;;;;;;5109467;27;20101;-82
2022/09/10 01:25:39;;;;;;;16.17;13.52;;;16.70;99.90;;;;;;5107398;27;20035;-83
2022/09/10 01:28:16;;;;;;;15.32;13.40;;;16.80;99.90;;;;;;5106868;27;20104;-82
2022/09/10 01:30:49;;;;;;;15.00;13.35;;;16.90;99.90;;;;;;5105240;27;20503;-83
2022/09/10 01:33:25;;;;;;;17.75;13.40;;;16.60;99.90;;;;;;5124569;27;20041;-82
2022/09/10 01:36:00;;;;;;;15.82;13.38;;;16.80;99.90;;;;;;5108015;27;20108;-82
2022/09/10 01:38:37;;;;;;;14.13;12.60;;;16.80;99.90;;;;;;5124274;27;20047;-82
2022/09/10 01:41:03;;;;;;;14.88;13.23;;;16.60;99.90;;;;;;5101708;27;20043;-81
2022/09/10 01:43:29;;;;;;;16.75;13.50;;;16.60;99.90;;;;;;5105446;27;20367;-81
2022/09/10 01:46:21;;;;;;;18.15;14.15;;;16.60;99.90;;;;;;5101396;27;20036;-87
2022/09/10 01:49:13;;;;;;;16.23;14.00;;;16.50;99.90;;;;;;5122177;27;20046;-85
2022/09/10 01:52:09;;;;;;;14.85;13.05;;;16.80;99.90;;;;;;5109891;27;20031;-83
2022/09/10 01:55:05;;;;;;;19.02;14.20;;;16.70;99.90;;;;;;5106217;27;20084;-85
2022/09/10 01:58:03;;;;;;;16.73;13.80;;;16.60;99.90;;;;;;5109456;27;20114;-82
2022/09/10 02:00:32;;;;;;;16.02;13.52;;;16.70;99.90;;;;;;5109627;27;20028;-87
2022/09/10 02:03:08;;;;;;;16.60;14.05;;;16.70;99.90;;;;;;5103967;27;20028;-87
2022/09/10 02:05:38;;;;;;;18.13;14.25;;;16.60;99.90;;;;;;5106647;27;20087;-88
2022/09/10 02:08:15;;;;;;;16.70;14.85;;;16.60;99.90;;;;;;5095387;28;20050;-85
2022/09/10 02:10:58;;;;;;;19.08;14.45;;;16.80;99.90;;;;;;5106664;27;20050;-83
2022/09/10 02:13:25;;;;;;;16.45;14.55;;;16.80;99.90;;;;;;5119172;27;20036;-85
2022/09/10 02:15:51;;;;;;;17.60;15.10;;;16.60;99.90;;;;;;5112411;27;20035;-82
2022/09/10 02:18:20;;;;;;;24.77;16.33;;;16.90;99.90;;;;;;5092859;27;20043;-86
2022/09/10 02:20:49;;;;;;;20.83;15.48;;;16.80;99.90;;;;;;5109044;27;20078;-83
2022/09/10 02:23:17;;;;;;;21.95;15.70;;;16.80;99.90;;;;;;5112986;27;20475;-86
2022/09/10 02:25:44;;;;;;;18.88;16.27;;;16.80;99.90;;;;;;5113868;27;20038;-86
2022/09/10 02:28:24;;;;;;;19.33;16.52;;;16.80;99.90;;;;;;5115067;27;20027;-87
2022/09/10 02:30:49;;;;;;;17.98;15.07;;;16.60;99.90;;;;;;5110282;28;20075;-87
2022/09/10 02:33:20;;;;;;;18.20;15.85;;;16.80;99.90;;;;;;5114319;27;20039;-87
2022/09/10 02:35:50;;;;;;;20.85;16.55;;;16.70;99.90;;;;;;5079024;28;20039;-87
2022/09/10 02:42:02;;;;;;;22.92;16.55;;;17.30;99.90;;;;;;5060435;28;20055;-84
2022/09/10 02:44:28;;;;;;;20.98;16.98;;;16.60;99.90;;;;;;5034561;28;20037;-83
2022/09/10 02:46:54;;;;;;;20.73;16.98;;;16.70;99.90;;;;;;5106278;28;20092;-85
2022/09/10 02:49:20;;;;;;;23.55;17.40;;;16.70;99.90;;;;;;5102302;27;20110;-84
2022/09/10 02:51:49;;;;;;;21.48;19.05;;;16.60;99.90;;;;;;5081205;27;20810;-87
2022/09/10 02:54:15;;;;;;;26.42;20.25;;;16.60;99.90;;;;;;5095258;27;20043;-84
2022/09/10 02:56:42;;;;;;;23.80;18.75;;;16.70;99.90;;;;;;5107842;27;20422;-86
2022/09/10 02:59:08;;;;;;;23.95;19.20;;;16.90;99.90;;;;;;5088126;28;20113;-85
2022/09/10 03:01:34;;;;;;;21.90;18.73;;;16.70;99.90;;;;;;5109680;28;20039;-85
2022/09/10 03:03:59;;;;;;;22.25;17.85;;;16.90;99.90;;;;;;5095897;27;20063;-85
2022/09/10 03:06:26;;;;;;;22.95;19.80;;;16.90;99.90;;;;;;5105263;27;20031;-85
2022/09/10 03:08:56;;;;;;;28.52;21.13;;;16.90;99.90;;;;;;5091439;28;20044;-86
2022/09/10 03:11:22;;;;;;;27.40;21.83;;;16.90;99.90;;;;;;5092023;28;20430;-85
2022/09/10 03:13:49;;;;;;;30.67;23.65;;;16.90;99.90;;;;;;5095572;27;20396;-86
2022/09/10 03:16:17;;;;;;;28.27;21.50;;;16.70;99.90;;;;;;5108937;27;20114;-83
2022/09/10 03:18:43;;;;;;;34.55;22.40;;;16.70;99.90;;;;;;5108160;28;20027;-88
2022/09/10 03:21:19;;;;;;;31.55;23.70;;;16.90;99.90;;;;;;5087495;28;20039;-82
2022/09/10 03:23:46;;;;;;;26.92;22.05;;;16.90;99.90;;;;;;5086319;28;20040;-85
2022/09/10 03:26:14;;;;;;;30.77;23.27;;;17.30;99.90;;;;;;5068192;28;20035;-86
2022/09/10 03:28:42;;;;;;;29.70;22.75;;;16.70;99.90;;;;;;5092824;28;20104;-85
2022/09/10 03:31:08;;;;;;;34.40;24.73;;;16.80;99.90;;;;;;5089276;28;20036;-83
2022/09/10 03:33:34;;;;;;;29.88;23.13;;;16.80;99.90;;;;;;5103487;28;20130;-84
2022/09/10 03:36:01;;;;;;;30.45;22.38;;;17.00;99.90;;;;;;5086092;28;20499;-83
2022/09/10 03:38:28;;;;;;;33.53;25.23;;;16.80;99.90;;;;;;5090661;28;20114;-83
2022/09/10 03:40:54;;;;;;;35.10;22.80;;;16.80;99.90;;;;;;5087817;28;20069;-86
2022/09/10 03:43:21;;;;;;;36.38;25.67;;;16.80;99.90;;;;;;5111292;28;20476;-86
2022/09/10 03:45:50;;;;;;;30.02;22.88;;;16.90;99.90;;;;;;5107834;28;20114;-83
2022/09/10 03:48:18;;;;;;;33.75;24.38;;;16.80;99.90;;;;;;5090275;28;20035;-85
2022/09/10 03:50:45;;;;;;;34.80;24.65;;;16.80;99.90;;;;;;5091359;28;20043;-82
2022/09/10 03:53:12;;;;;;;35.03;25.63;;;16.90;99.90;;;;;;5110369;28;20079;-84
2022/09/10 03:55:38;;;;;;;37.10;25.55;;;17.00;99.90;;;;;;5074224;28;20108;-84
2022/09/10 03:58:05;;;;;;;37.97;27.38;;;16.90;99.90;;;;;;5094381;28;20039;-85
2022/09/10 04:00:37;;;;;;;45.58;27.88;;;16.90;99.90;;;;;;5076339;28;20521;-83
2022/09/10 04:03:05;;;;;;;43.75;29.60;;;17.00;99.90;;;;;;5109837;28;20028;-84
2022/09/10 04:05:31;;;;;;;41.95;28.25;;;16.90;99.90;;;;;;5103044;28;20107;-82
2022/09/10 04:07:58;;;;;;;47.40;27.77;;;17.00;99.90;;;;;;5094776;28;20043;-85
2022/09/10 04:10:24;;;;;;;45.22;28.13;;;17.10;99.90;;;;;;5092771;28;20127;-83
2022/09/10 04:12:53;;;;;;;46.95;28.40;;;16.80;99.90;;;;;;5084888;28;20040;-87
2022/09/10 04:15:21;;;;;;;39.95;26.65;;;16.80;99.90;;;;;;5094135;28;20032;-88
2022/09/10 04:17:50;;;;;;;40.63;28.35;;;16.80;99.90;;;;;;5090240;28;20510;-84
2022/09/10 04:20:24;;;;;;;43.05;28.77;;;17.70;99.90;;;;;;5109591;27;20452;-86
2022/09/10 04:22:50;;;;;;;44.10;29.73;;;17.10;99.90;;;;;;5117383;27;20112;-84
2022/09/10 04:25:17;;;;;;;43.47;27.40;;;16.90;99.90;;;;;;5106260;27;20066;-86
2022/09/10 04:27:44;;;;;;;38.42;27.02;;;16.90;99.90;;;;;;5114264;27;20680;-85
2022/09/10 04:30:11;;;;;;;34.83;25.48;;;16.90;99.90;;;;;;5115001;27;21072;-88
2022/09/10 04:32:37;;;;;;;31.88;23.08;;;16.80;99.90;;;;;;5107283;27;20085;-88
2022/09/10 04:35:05;;;;;;;31.75;24.25;;;17.00;99.90;;;;;;5112241;27;20031;-86
2022/09/10 04:37:31;;;;;;;33.38;23.27;;;16.90;99.90;;;;;;5115447;27;20066;-84
2022/09/10 04:39:57;;;;;;;31.50;22.83;;;16.80;99.90;;;;;;5096217;27;20074;-84
2022/09/10 04:42:22;;;;;;;27.80;21.83;;;16.70;99.90;;;;;;5097007;27;20038;-82
2022/09/10 04:44:48;;;;;;;33.45;22.65;;;17.00;99.90;;;;;;5095900;27;20031;-85
2022/09/10 04:47:15;;;;;;;27.90;22.17;;;16.90;99.90;;;;;;5130199;27;20403;-84
2022/09/10 04:49:44;;;;;;;30.23;22.73;;;16.90;99.90;;;;;;5087269;28;20070;-85
2022/09/10 04:52:13;;;;;;;27.45;20.85;;;16.80;99.90;;;;;;5083409;27;20133;-87
2022/09/10 04:54:39;;;;;;;24.90;21.10;;;16.90;99.90;;;;;;5134349;27;20205;-84
2022/09/10 04:57:05;;;;;;;29.98;20.52;;;16.80;99.90;;;;;;5117843;27;20129;-85
2022/09/10 04:59:31;;;;;;;27.50;21.98;;;16.70;99.90;;;;;;5083206;27;20039;-84
2022/09/10 05:01:57;;;;;;;27.13;21.42;;;17.00;99.90;;;;;;5113128;27;20515;-80
2022/09/10 05:04:23;;;;;;;27.52;21.05;;;16.80;99.90;;;;;;5108680;27;20114;-84
2022/09/10 05:06:49;;;;;;;28.27;20.95;;;16.80;99.90;;;;;;5111928;27;20385;-84
2022/09/10 05:09:19;;;;;;;28.20;20.40;;;16.80;99.90;;;;;;5107758;27;20050;-82
2022/09/10 05:11:51;;;;;;;31.75;23.13;;;17.00;99.90;;;;;;5125837;27;20043;-83
2022/09/10 05:14:17;;;;;;;25.40;20.65;;;17.00;99.90;;;;;;5095799;27;20043;-82
2022/09/10 05:16:45;;;;;;;29.90;22.60;;;17.00;99.90;;;;;;5079866;27;20038;-82
2022/09/10 05:19:16;;;;;;;26.67;20.85;;;16.80;99.90;;;;;;5122424;27;20054;-82
2022/09/10 05:21:43;;;;;;;29.17;21.98;;;16.80;99.90;;;;;;5086370;27;20049;-83
2022/09/10 05:24:09;;;;;;;26.38;21.05;;;16.80;99.90;;;;;;5102536;27;20387;-82
2022/09/10 05:26:35;;;;;;;26.90;20.42;;;16.80;99.90;;;;;;5120138;27;20039;-86
2022/09/10 05:29:13;;;;;;;23.67;20.05;;;16.90;99.90;;;;;;5102634;27;20114;-87
2022/09/10 05:31:39;;;;;;;25.98;19.52;;;16.80;99.90;;;;;;5120161;27;20034;-85
2022/09/10 05:34:05;;;;;;;27.48;21.60;;;16.80;99.90;;;;;;5086610;27;20043;-86
2022/09/10 05:36:31;;;;;;;26.80;20.58;;;16.80;99.90;;;;;;5119664;27;20030;-85
2022/09/10 05:39:02;;;;;;;22.70;19.02;;;17.00;99.90;;;;;;5100764;27;20368;-85
2022/09/10 05:41:29;;;;;;;24.88;19.73;;;16.80;99.90;;;;;;5093961;27;20100;-86
2022/09/10 05:43:56;;;;;;;28.08;20.52;;;17.10;99.90;;;;;;5111680;27;20043;-83
2022/09/10 05:46:23;;;;;;;27.20;21.33;;;16.90;99.90;;;;;;5113065;27;20463;-83
2022/09/10 05:48:49;;;;;;;28.13;19.27;;;16.90;99.90;;;;;;5112533;27;20035;-83
2022/09/10 05:51:16;;;;;;;26.08;19.83;;;16.90;99.90;;;;;;5117195;27;20042;-83
2022/09/10 05:53:42;;;;;;;26.80;19.92;;;17.00;99.90;;;;;;5098172;27;20043;-83
2022/09/10 05:56:08;;;;;;;26.63;20.98;;;17.10;99.90;;;;;;5104254;27;20290;-82
2022/09/10 05:58:33;;;;;;;28.52;21.60;;;17.20;99.90;;;;;;5124836;27;20129;-83
2022/09/10 06:01:00;;;;;;;26.05;20.00;;;16.90;99.90;;;;;;5079745;27;20394;-83
2022/09/10 06:03:26;;;;;;;25.98;19.63;;;17.00;99.90;;;;;;5115500;28;20122;-84
2022/09/10 06:05:52;;;;;;;25.35;19.80;;;17.20;99.90;;;;;;5097513;27;20530;-83
2022/09/10 06:08:22;;;;;;;28.73;20.77;;;17.00;99.90;;;;;;5082279;27;20043;-82
2022/09/10 06:10:59;;;;;;;28.52;21.30;;;17.00;99.90;;;;;;5117043;27;20114;-81
2022/09/10 06:13:26;;;;;;;29.75;20.73;;;17.20;99.90;;;;;;5128674;27;20042;-84
2022/09/10 06:15:52;;;;;;;29.73;21.25;;;17.10;99.90;;;;;;5135592;27;20043;-84
2022/09/10 06:18:18;;;;;;;27.35;21.25;;;17.00;99.90;;;;;;5119764;27;20319;-85
2022/09/10 06:20:46;;;;;;;30.50;21.63;;;17.20;99.90;;;;;;5099771;27;20051;-83
2022/09/10 06:23:16;;;;;;;29.02;20.38;;;17.00;99.90;;;;;;5119552;27;20049;-84
2022/09/10 06:25:43;;;;;;;28.85;20.75;;;17.10;99.90;;;;;;5136013;27;20062;-84
2022/09/10 06:28:11;;;;;;;24.73;19.27;;;17.00;99.90;;;;;;5119586;27;20034;-86
2022/09/10 06:30:37;;;;;;;24.65;19.60;;;17.20;99.90;;;;;;5118355;27;20046;-84
2022/09/10 06:33:03;;;;;;;26.75;19.38;;;17.00;99.90;;;;;;5118910;27;20045;-84
2022/09/10 06:35:30;;;;;;;27.60;19.67;;;17.20;99.90;;;;;;5101975;27;20038;-83
2022/09/10 06:37:57;;;;;;;27.75;19.98;;;17.00;99.90;;;;;;5081980;27;20093;-84
2022/09/10 06:40:26;;;;;;;23.42;19.15;;;17.10;99.90;;;;;;5083651;27;20522;-84
2022/09/10 06:42:53;;;;;;;27.08;19.58;;;17.20;99.90;;;;;;5097351;27;20083;-87
2022/09/10 06:45:19;;;;;;;25.27;18.42;;;17.00;99.90;;;;;;5098648;27;20432;-85
2022/09/10 06:47:44;;;;;;;27.17;20.13;;;17.10;99.90;;;;;;5081808;27;20035;-86
2022/09/10 06:50:10;;;;;;;27.80;19.95;;;17.00;99.90;;;;;;5081572;27;20043;-86
2022/09/10 06:52:36;;;;;;;26.65;19.60;;;17.10;99.90;;;;;;5092328;27;20031;-83
2022/09/10 06:55:03;;;;;;;32.45;21.45;;;17.30;99.90;;;;;;5084628;27;20060;-84
2022/09/10 06:57:28;;;;;;;31.73;20.40;;;17.30;99.90;;;;;;5101985;27;20103;-85
2022/09/10 06:59:54;;;;;;;26.10;20.38;;;17.40;99.90;;;;;;5084631;27;20038;-84
2022/09/10 07:02:20;;;;;;;25.17;20.08;;;17.40;99.90;;;;;;5118250;27;20046;-84
2022/09/10 07:04:45;;;;;;;26.00;20.10;;;17.20;99.90;;;;;;5101426;27;20038;-82
2022/09/10 07:07:11;;;;;;;31.33;20.88;;;17.40;99.90;;;;;;5098276;27;20554;-83
2022/09/10 07:09:36;;;;;;;26.23;19.10;;;17.30;99.90;;;;;;5101149;27;20042;-84
2022/09/10 07:12:03;;;;;;;26.77;19.90;;;17.30;99.90;;;;;;5078089;27;20088;-83
2022/09/10 07:14:29;;;;;;;27.45;19.38;;;17.30;99.90;;;;;;5101184;27;20031;-82
2022/09/10 07:16:56;;;;;;;25.35;19.50;;;17.00;99.90;;;;;;5117234;27;20411;-83
2022/09/10 07:19:22;;;;;;;28.77;19.88;;;17.20;99.90;;;;;;5084717;27;20038;-82
2022/09/10 07:21:48;;;;;;;24.67;18.73;;;17.20;99.90;;;;;;5100552;27;20045;-83
2022/09/10 07:24:14;;;;;;;29.92;19.38;;;17.10;99.90;;;;;;5086436;28;20037;-84
2022/09/10 07:26:40;;;;;;;25.42;19.48;;;17.20;99.90;;;;;;5097687;28;20118;-83
2022/09/10 07:29:06;;;;;;;24.73;19.30;;;17.10;99.90;;;;;;5114395;28;20099;-83
2022/09/10 07:31:34;;;;;;;24.77;19.52;;;17.00;99.90;;;;;;5114785;28;20065;-87
2022/09/10 07:34:01;;;;;;;29.00;19.95;;;17.00;99.90;;;;;;5113108;27;20046;-86
2022/09/10 07:36:31;;;;;;;28.48;20.13;;;17.00;99.90;;;;;;5112192;28;20074;-86
2022/09/10 07:39:02;;;;;;;26.08;18.75;;;17.60;99.90;;;;;;5081731;28;20064;-87
2022/09/10 07:41:31;;;;;;;26.13;19.50;;;17.10;99.90;;;;;;5100419;27;20043;-85
2022/09/10 07:43:58;;;;;;;24.95;19.60;;;17.10;99.90;;;;;;5117554;27;20091;-84
2022/09/10 07:46:24;;;;;;;26.83;19.27;;;17.20;99.90;;;;;;5116583;27;20035;-86
2022/09/10 07:48:58;;;;;;;25.88;19.70;;;17.10;99.90;;;;;;5117600;27;20091;-85
2022/09/10 07:51:25;;;;;;;29.08;19.45;;;17.30;99.90;;;;;;5115966;27;20082;-84
2022/09/10 07:53:56;;;;;;;22.63;18.58;;;17.40;99.90;;;;;;5116874;27;20538;-82
2022/09/10 07:56:23;;;;;;;26.33;20.77;;;17.30;99.90;;;;;;5135014;27;20777;-84
2022/09/10 07:58:50;;;;;;;25.88;19.08;;;17.20;99.90;;;;;;5117609;27;20046;-82
2022/09/10 08:01:18;;;;;;;25.23;20.27;;;17.10;99.90;;;;;;5129628;27;20099;-84
2022/09/10 08:03:44;;;;;;;24.33;18.48;;;17.20;99.90;;;;;;5110374;28;20677;-83
2022/09/10 08:06:11;;;;;;;31.27;20.90;;;17.10;99.90;;;;;;5083968;27;20457;-84
2022/09/10 08:08:41;;;;;;;28.05;19.08;;;17.20;99.90;;;;;;5101925;27;20394;-84
2022/09/10 08:11:08;;;;;;;31.70;20.85;;;17.40;99.90;;;;;;5112001;27;20039;-84
2022/09/10 08:13:35;;;;;;;28.27;20.45;;;17.30;99.90;;;;;;5117688;27;20075;-83
2022/09/10 08:16:06;;;;;;;31.65;20.38;;;17.30;99.90;;;;;;5117234;27;20138;-84
2022/09/10 08:18:34;;;;;;;25.67;20.38;;;17.50;99.90;;;;;;5117590;27;20038;-84
2022/09/10 08:21:00;;;;;;;25.02;19.65;;;17.30;99.90;;;;;;5100211;27;20054;-85
2022/09/10 08:23:29;;;;;;;25.95;20.08;;;17.60;99.90;;;;;;5099180;27;20067;-86
2022/09/10 08:25:57;;;;;;;28.50;20.98;;;17.40;99.90;;;;;;5117336;27;20031;-85
2022/09/10 08:28:26;;;;;;;25.52;19.58;;;17.00;99.90;;;;;;5120592;27;20039;-85
2022/09/10 08:31:03;;;;;;;26.88;19.88;;;17.30;99.90;;;;;;5121523;27;20129;-85
2022/09/10 08:33:30;;;;;;;31.13;19.60;;;17.40;99.90;;;;;;5098653;27;20035;-85
2022/09/10 08:35:58;;;;;;;30.45;18.90;;;17.40;99.90;;;;;;5119110;27;20051;-85
2022/09/10 08:38:28;;;;;;;26.25;19.85;;;17.30;99.90;;;;;;5138304;27;20465;-85
2022/09/10 08:40:55;;;;;;;24.35;20.02;;;17.40;99.90;;;;;;5116852;27;20126;-84
2022/09/10 08:43:33;;;;;;;26.50;18.85;;;17.60;99.90;;;;;;5103717;27;20161;-84
2022/09/10 08:46:03;;;;;;;27.77;19.13;;;17.60;99.90;;;;;;5118017;27;20035;-83
2022/09/10 08:48:34;;;;;;;23.85;19.17;;;17.50;99.90;;;;;;5119961;27;20485;-82
2022/09/10 08:51:08;;;;;;;26.90;18.92;;;17.50;99.90;;;;;;5137468;27;20038;-83
2022/09/10 08:53:53;;;;;;;26.13;18.58;;;17.60;99.90;;;;;;5118242;27;20121;-83
2022/09/10 08:56:20;;;;;;;;;;;17.70;99.90;;;;;;5119480;27;20653;-83
2022/09/10 08:59:05;;;;;;;21.15;17.70;;;17.60;99.90;;;;;;5132453;27;19915;-83
2022/09/10 09:01:34;;;;;;;;;;;17.70;99.90;;;;;;5109873;27;20050;-84
2022/09/10 09:04:07;;;;;;;20.60;16.10;;;17.60;99.90;;;;;;5123921;27;20227;-83
2022/09/10 09:06:40;;;;;;;21.33;16.25;;;17.80;99.90;;;;;;5128060;27;20073;-83
2022/09/10 09:09:06;;;;;;;21.83;16.75;;;17.90;99.90;;;;;;5104260;27;20099;-81
2022/09/10 09:11:44;;;;;;;19.15;16.17;;;17.80;99.90;;;;;;5120841;27;20122;-84
2022/09/10 09:14:39;;;;;;;21.13;16.70;;;17.90;99.90;;;;;;5120263;27;20390;-83
2022/09/10 09:17:17;;;;;;;20.17;15.75;;;18.00;99.90;;;;;;5120268;27;20405;-83
2022/09/10 09:20:11;;;;;;;19.90;15.60;;;17.80;99.90;;;;;;5120546;27;20065;-83
2022/09/10 09:22:50;;;;;;;20.10;15.63;;;18.00;99.90;;;;;;5120314;27;20038;-84
2022/09/10 09:25:23;;;;;;;19.45;14.05;;;18.70;99.90;;;;;;5108944;27;20039;-83
2022/09/10 09:27:56;;;;;;;19.58;15.73;;;17.80;99.90;;;;;;5120293;27;20083;-83
2022/09/10 09:30:27;;;;;;;17.05;13.98;;;17.70;99.90;;;;;;5122865;27;20074;-81
2022/09/10 09:32:58;;;;;;;17.63;14.50;;;17.70;99.90;;;;;;5100409;27;20039;-84
2022/09/10 09:35:33;;;;;;;17.35;14.25;;;17.80;99.90;;;;;;5119488;27;20085;-83
2022/09/10 09:38:09;;;;;;;;;;;17.90;99.90;;;;;;5120062;27;20039;-82
2022/09/10 09:41:00;;;;;;;19.20;12.75;;;17.70;99.90;;;;;;5121552;27;19929;-83
2022/09/10 09:43:57;;;;;;;19.85;14.50;;;17.70;99.90;;;;;;5119529;27;20078;-83
2022/09/10 09:46:24;;;;;;;19.00;13.15;;;17.80;99.90;;;;;;5115599;27;20035;-83
2022/09/10 09:48:57;;;;;;;16.30;13.20;;;17.90;99.90;;;;;;5116698;27;20046;-83
2022/09/10 09:51:24;;;;;;;16.92;13.95;;;17.90;99.90;;;;;;5118874;27;20038;-87
2022/09/10 09:53:56;;;;;;;19.38;14.93;;;17.80;99.90;;;;;;5101826;27;20038;-86
2022/09/10 09:56:33;;;;;;;18.77;14.40;;;17.80;99.90;;;;;;5117110;27;20151;-86
2022/09/10 09:59:10;;;;;;;18.42;14.43;;;17.80;99.90;;;;;;5123191;27;20095;-88
2022/09/10 10:01:39;;;;;;;18.83;14.30;;;17.50;99.90;;;;;;5118969;27;20038;-87
2022/09/10 10:04:21;;;;;;;18.13;14.57;;;17.60;99.90;;;;;;5118292;27;20111;-87
2022/09/10 10:07:03;;;;;;;19.73;14.50;;;17.50;99.90;;;;;;5097334;27;20039;-86
2022/09/10 10:09:32;;;;;;;20.23;15.63;;;17.40;99.90;;;;;;5099640;27;20039;-85
2022/09/10 10:12:03;;;;;;;16.90;13.88;;;17.50;99.90;;;;;;5114780;27;20039;-84
2022/09/10 10:14:42;;;;;;;17.38;13.25;;;17.40;99.90;;;;;;5084519;27;20063;-86
2022/09/10 10:17:27;;;;;;;17.45;13.23;;;17.20;99.90;;;;;;5131664;27;20088;-85
2022/09/10 10:20:01;;;;;;;18.98;14.07;;;17.50;99.90;;;;;;5092531;28;20040;-83
2022/09/10 10:22:31;;;;;;;18.80;13.57;;;17.70;99.90;;;;;;5092918;28;20103;-81
2022/09/10 10:25:03;;;;;;;18.98;13.52;;;17.60;99.90;;;;;;5093143;28;20124;-84
2022/09/10 10:27:36;;;;;;;17.05;12.95;;;17.70;99.90;;;;;;5057533;28;20032;-80
2022/09/10 10:30:04;;;;;;;18.70;15.10;;;17.70;99.90;;;;;;5078160;28;20035;-82
2022/09/10 10:32:54;;;;;;;15.93;12.88;;;17.80;99.90;;;;;;5128102;27;20391;-81
2022/09/10 10:35:23;;;;;;;17.52;13.32;;;17.20;99.90;;;;;;5093047;28;20046;-82
2022/09/10 10:38:18;;;;;;;16.45;12.80;;;17.90;99.90;;;;;;5109294;28;20040;-81
2022/09/10 10:41:08;;;;;;;17.70;12.60;;;18.10;99.90;;;;;;5082559;28;20036;-83
2022/09/10 10:44:11;;;;;;;17.15;13.10;;;18.00;99.90;;;;;;5110230;28;20036;-80
2022/09/10 10:46:45;;;;;;;14.82;11.55;;;18.20;99.90;;;;;;5092758;28;20039;-81
2022/09/10 10:49:10;;;;;;;18.48;12.23;;;18.20;99.90;;;;;;5076128;28;20036;-82
2022/09/10 10:52:23;;;;;;;13.38;10.30;;;18.00;99.90;;;;;;5082073;28;20042;-80
2022/09/10 10:55:06;;;;;;;15.25;10.25;;;17.90;99.90;;;;;;5092026;28;20072;-82
2022/09/10 10:58:00;;;;;;;12.52;9.30;;;18.00;99.90;;;;;;5106396;28;20047;-83
2022/09/10 11:00:27;;;;;;;14.30;10.15;;;18.00;99.90;;;;;;5110923;28;20050;-83
2022/09/10 11:03:08;;;;;;;11.32;9.48;;;18.10;99.90;;;;;;5071059;28;20395;-81
2022/09/10 11:06:15;;;;;;;13.82;10.77;;;18.10;99.90;;;;;;5107554;28;20066;-81
2022/09/10 11:08:41;;;;;;;15.52;11.00;;;18.00;99.90;;;;;;5029289;28;20099;-81
2022/09/10 11:11:35;;;;;;;12.25;10.07;;;18.00;99.90;;;;;;4996089;28;20076;-81
2022/09/10 11:14:11;;;;;;;14.68;11.27;;;18.00;99.90;;;;;;5048544;28;20052;-80
2022/09/10 11:16:53;;;;;;;12.95;10.45;;;18.20;99.90;;;;;;5080174;28;20379;-82
2022/09/10 11:19:37;;;;;;;12.10;10.77;;;18.10;99.90;;;;;;5094647;27;20040;-82
2022/09/10 11:22:24;;;;;;;14.55;10.93;;;18.40;99.90;;;;;;5116636;27;20039;-82
2022/09/10 11:25:19;;;;;;;12.23;9.80;;;18.30;99.90;;;;;;5116938;27;20043;-82
2022/09/10 11:28:05;;;;;;;15.40;11.75;;;18.40;99.90;;;;;;5125029;27;20042;-80
2022/09/10 11:31:05;;;;;;;14.50;11.60;;;18.40;99.90;;;;;;5116915;27;20394;-81
2022/09/10 11:34:11;;;;;;;14.90;11.18;;;18.50;99.90;;;;;;5114789;27;20126;-81
2022/09/10 11:36:41;;;;;;;12.52;11.00;;;18.50;99.90;;;;;;5085668;27;20051;-83
2022/09/10 11:39:16;;;;;;;12.48;10.48;;;18.60;99.90;;;;;;5114613;27;20043;-81
2022/09/10 11:41:45;;;;;;;;;;;18.80;99.90;;;;;;5131637;28;20043;-83
2022/09/10 11:44:49;;;;;;;13.57;10.70;;;18.60;99.90;;;;;;5143784;27;19946;-81
2022/09/10 11:47:24;;;;;;;11.88;9.63;;;18.90;99.90;;;;;;5126151;27;20560;-81
2022/09/10 11:50:09;;;;;;;;;;;19.00;99.90;;;;;;5103043;27;20035;-81
2022/09/10 11:52:35;;;;;;;10.27;8.93;;;18.70;99.90;;;;;;5119694;28;19920;-80
2022/09/10 11:55:02;;;;;;;12.52;9.32;;;18.90;99.90;;;;;;5116566;27;20613;-80
2022/09/10 11:57:53;;;;;;;9.75;8.63;;;19.00;99.90;;;;;;5116316;27;20535;-81
2022/09/10 12:00:19;;;;;;;9.85;7.97;;;19.00;99.90;;;;;;5112962;28;20142;-81
2022/09/10 12:03:02;;;;;;;12.18;8.45;;;19.10;99.90;;;;;;5098495;27;20078;-82
2022/09/10 12:05:47;;;;;;;9.27;8.32;;;19.20;99.90;;;;;;5121633;27;20046;-84
2022/09/10 12:08:18;;;;;;;12.70;8.52;;;19.40;99.90;;;;;;5120745;27;20054;-80
2022/09/10 12:11:12;;;;;;;9.23;8.15;;;19.50;99.90;;;;;;5116548;27;20039;-81
2022/09/10 12:13:39;;;;;;;12.00;7.93;;;19.70;99.90;;;;;;5123018;27;20034;-81
2022/09/10 12:16:36;;;;;;;10.73;8.07;;;19.60;99.90;;;;;;5120262;27;20661;-80
2022/09/10 12:19:28;;;;;;;9.15;7.65;;;19.10;99.90;;;;;;5118743;27;20094;-81
2022/09/10 12:22:26;;;;;;;7.53;6.80;;;19.20;99.90;;;;;;5116058;27;20539;-80
2022/09/10 12:25:01;;;;;;;9.65;7.47;;;19.00;99.90;;;;;;5059553;27;20445;-80
2022/09/10 12:27:47;;;;;;;10.48;8.68;;;18.70;99.90;;;;;;5099656;27;20112;-82
2022/09/10 12:30:36;;;;;;;9.15;7.13;;;18.90;99.90;;;;;;5129438;27;20038;-83
2022/09/10 12:33:11;;;;;;;8.48;7.68;;;19.00;99.90;;;;;;5118481;27;20085;-84
2022/09/10 12:35:43;;;;;;;8.73;7.82;;;19.30;99.90;;;;;;5101591;27;20091;-84
2022/09/10 12:38:46;;;;;;;9.13;7.93;;;19.50;99.90;;;;;;5100051;27;20041;-80
2022/09/10 12:41:23;;;;;;;8.48;7.30;;;19.30;99.90;;;;;;5102604;27;20035;-81
2022/09/10 12:43:57;;;;;;;8.05;6.65;;;19.40;99.90;;;;;;5100187;27;20556;-81
2022/09/10 12:46:24;;;;;;;8.90;7.63;;;19.50;99.90;;;;;;5113794;27;20066;-81
2022/09/10 12:49:05;;;;;;;7.90;7.15;;;19.40;99.90;;;;;;5119984;27;20035;-82
2022/09/10 12:51:50;;;;;;;6.95;6.28;;;19.50;99.90;;;;;;5121448;27;20509;-81
2022/09/10 12:54:25;;;;;;;7.25;6.32;;;19.60;99.90;;;;;;5137377;27;20081;-82
2022/09/10 12:57:28;;;;;;;8.00;7.20;;;19.60;99.90;;;;;;5133360;27;20043;-82
2022/09/10 13:00:20;;;;;;;8.13;6.10;;;19.60;99.90;;;;;;5103585;27;20359;-81
2022/09/10 13:03:04;;;;;;;8.90;7.72;;;20.00;99.90;;;;;;5119701;27;20046;-80